createdAt,value
2022-08-02T00:01:44.212Z,1.30
2022-08-02T00:04:13.245Z,1.15
2022-08-02T00:06:44.021Z,1.05
2022-08-02T00:09:16.401Z,1.20
2022-08-02T00:11:45.314Z,1.27
2022-08-02T00:14:17.343Z,1.10
2022-08-02T00:16:46.694Z,1.00
2022-08-02T00:19:16.841Z,0.95
2022-08-02T00:21:52.525Z,1.00
2022-08-02T00:24:30.896Z,1.40
2022-08-02T00:27:03.753Z,1.13
2022-08-02T00:29:50.377Z,1.00
2022-08-02T00:32:22.451Z,1.40
2022-08-02T00:34:54.630Z,1.10
2022-08-02T00:37:27.070Z,1.30
2022-08-02T00:39:58.254Z,1.10
2022-08-02T00:42:27.111Z,1.50
2022-08-02T00:44:55.208Z,1.08
2022-08-02T00:47:27.393Z,1.42
2022-08-02T00:49:56.178Z,1.17
2022-08-02T00:52:26.200Z,1.00
2022-08-02T00:54:55.975Z,1.10
2022-08-02T00:57:25.638Z,1.20
2022-08-02T00:59:54.477Z,1.50
2022-08-02T01:02:26.918Z,1.52
2022-08-02T01:04:58.064Z,1.08
2022-08-02T01:07:29.493Z,1.40
2022-08-02T01:10:01.714Z,1.23
2022-08-02T01:12:32.902Z,1.17
2022-08-02T01:15:08.285Z,1.30
2022-08-02T01:17:44.964Z,1.30
2022-08-02T01:20:30.169Z,1.13
2022-08-02T01:23:18.199Z,1.23
2022-08-02T01:26:12.406Z,1.10
2022-08-02T01:28:51.078Z,1.27
2022-08-02T01:31:35.586Z,1.08
2022-08-02T01:34:11.527Z,1.15
2022-08-02T01:37:04.707Z,1.13
2022-08-02T01:39:37.270Z,1.35
2022-08-02T01:42:11.114Z,1.30
2022-08-02T01:44:44.685Z,0.80
2022-08-02T01:47:19.474Z,0.95
2022-08-02T01:49:52.987Z,1.15
2022-08-02T01:52:24.122Z,0.90
2022-08-02T01:54:59.197Z,1.10
2022-08-02T01:57:31.132Z,0.90
2022-08-02T02:00:13.255Z,1.15
2022-08-02T02:02:45.673Z,0.88
2022-08-02T02:05:17.002Z,1.15
2022-08-02T02:07:46.949Z,1.20
2022-08-02T02:10:21.804Z,1.30
2022-08-02T02:12:52.258Z,1.15
2022-08-02T02:15:41.495Z,1.35
2022-08-02T02:18:13.867Z,1.30
2022-08-02T02:20:44.005Z,0.93
2022-08-02T02:23:13.516Z,1.08
2022-08-02T02:25:46.620Z,1.02
2022-08-02T02:28:32.976Z,1.17
2022-08-02T02:31:06.658Z,1.33
2022-08-02T02:33:39.968Z,1.40
2022-08-02T02:36:11.708Z,1.40
2022-08-02T02:38:41.512Z,1.63
2022-08-02T02:41:12.557Z,1.20
2022-08-02T02:43:42.464Z,1.20
2022-08-02T02:46:14.525Z,1.38
2022-08-02T02:48:43.414Z,1.40
2022-08-02T02:51:17.426Z,1.67
2022-08-02T02:54:30.693Z,1.15
2022-08-02T02:56:55.798Z,1.25
2022-08-02T02:59:24.696Z,1.02
2022-08-02T03:02:08.254Z,1.13
2022-08-02T03:04:56.844Z,1.13
2022-08-02T03:07:27.489Z,1.38
2022-08-02T03:09:59.069Z,0.88
2022-08-02T03:12:47.844Z,1.00
2022-08-02T03:15:17.727Z,1.02
2022-08-02T03:18:10.966Z,1.10
2022-08-02T03:20:39.788Z,0.93
2022-08-02T03:23:09.477Z,1.20
2022-08-02T03:25:38.142Z,0.88
2022-08-02T03:28:13.375Z,0.82
2022-08-02T03:30:43.436Z,1.25
2022-08-02T03:33:13.684Z,0.82
2022-08-02T03:35:46.944Z,1.30
2022-08-02T03:38:38.600Z,1.20
2022-08-02T03:41:10.169Z,0.98
2022-08-02T03:43:41.248Z,1.10
2022-08-02T03:46:11.921Z,1.00
2022-08-02T03:48:43.232Z,1.30
2022-08-02T03:51:13.883Z,0.82
2022-08-02T03:53:43.403Z,1.02
2022-08-02T03:56:11.941Z,1.20
2022-08-02T03:58:40.049Z,1.15
2022-08-02T04:01:08.219Z,1.58
2022-08-02T04:03:36.603Z,1.52
2022-08-02T04:06:17.629Z,1.15
2022-08-02T04:09:02.993Z,1.40
2022-08-02T04:11:35.169Z,1.30
2022-08-02T04:14:07.088Z,1.30
2022-08-02T04:16:42.220Z,1.40
2022-08-02T04:19:15.998Z,1.30
2022-08-02T04:21:51.284Z,1.30
2022-08-02T04:24:25.133Z,1.60
2022-08-02T04:27:06.443Z,1.48
2022-08-02T04:29:46.878Z,1.33
2022-08-02T04:32:18.649Z,2.05
2022-08-02T04:35:17.688Z,1.67
2022-08-02T04:38:05.682Z,1.58
2022-08-02T04:40:33.868Z,1.58
2022-08-02T04:43:03.493Z,1.65
2022-08-02T04:45:57.043Z,1.77
2022-08-02T04:48:25.541Z,2.28
2022-08-02T04:50:54.043Z,1.42
2022-08-02T04:53:27.845Z,1.63
2022-08-02T04:55:59.395Z,1.63
2022-08-02T04:58:40.301Z,1.70
2022-08-02T05:01:09.346Z,1.60
2022-08-02T05:03:39.257Z,1.90
2022-08-02T05:06:30.030Z,1.67
2022-08-02T05:09:03.190Z,1.90
2022-08-02T05:11:36.545Z,1.90
2022-08-02T05:14:07.145Z,2.00
2022-08-02T05:16:35.752Z,2.00
2022-08-02T05:19:10.918Z,2.25
2022-08-02T05:21:53.621Z,1.80
2022-08-02T05:24:24.802Z,2.05
2022-08-02T05:26:54.822Z,1.90
2022-08-02T05:29:26.038Z,2.10
2022-08-02T05:31:56.174Z,1.90
2022-08-02T05:34:24.534Z,2.20
2022-08-02T05:36:53.202Z,2.17
2022-08-02T05:39:23.069Z,2.22
2022-08-02T05:41:51.324Z,2.30
2022-08-02T05:44:19.421Z,2.65
2022-08-02T05:46:48.531Z,2.13
2022-08-02T05:49:16.894Z,2.75
2022-08-02T05:51:53.500Z,2.63
2022-08-02T05:54:33.014Z,3.08
2022-08-02T05:57:06.114Z,2.63
2022-08-02T05:59:40.805Z,3.58
2022-08-02T06:02:30.504Z,2.90
2022-08-02T06:05:07.944Z,3.60
2022-08-02T06:07:37.169Z,3.70
2022-08-02T06:10:08.605Z,4.57
2022-08-02T06:12:44.905Z,5.45
2022-08-02T06:15:17.168Z,5.47
2022-08-02T06:17:49.212Z,6.22
2022-08-02T06:20:21.828Z,7.30
2022-08-02T06:22:51.840Z,7.57
2022-08-02T06:25:50.975Z,9.20
2022-08-02T06:28:20.935Z,10.43
2022-08-02T06:30:49.530Z,11.65
2022-08-02T06:33:17.870Z,12.10
2022-08-02T06:35:49.660Z,13.48
2022-08-02T06:38:25.257Z,14.68
2022-08-02T06:41:01.188Z,15.52
2022-08-02T06:43:35.998Z,14.98
2022-08-02T06:46:34.043Z,16.13
2022-08-02T06:48:58.087Z,16.55
2022-08-02T06:51:26.285Z,15.18
2022-08-02T06:53:54.434Z,15.18
2022-08-02T06:56:26.945Z,15.75
2022-08-02T06:58:55.001Z,15.98
2022-08-02T07:01:23.085Z,15.57
2022-08-02T07:03:53.619Z,14.82
2022-08-02T07:06:23.619Z,15.20
2022-08-02T07:09:18.230Z,15.30
2022-08-02T07:11:41.383Z,14.18
2022-08-02T07:14:09.420Z,13.60
2022-08-02T07:16:37.491Z,13.40
2022-08-02T07:19:05.731Z,14.15
2022-08-02T07:21:56.785Z,14.93
2022-08-02T07:24:23.417Z,14.52
2022-08-02T07:27:10.619Z,13.23
2022-08-02T07:29:46.573Z,11.75
2022-08-02T07:32:16.027Z,11.98
2022-08-02T07:34:52.461Z,9.93
2022-08-02T07:37:35.278Z,9.13
2022-08-02T07:40:15.036Z,9.10
2022-08-02T07:42:50.062Z,9.77
2022-08-02T07:45:18.615Z,10.32
2022-08-02T07:47:47.437Z,9.27
2022-08-02T07:50:17.155Z,10.75
2022-08-02T07:52:46.237Z,12.45
2022-08-02T07:55:16.280Z,11.25
2022-08-02T07:57:46.768Z,11.48
2022-08-02T08:00:18.257Z,9.80
2022-08-02T08:02:46.680Z,9.15
2022-08-02T08:05:16.209Z,8.07
2022-08-02T08:07:44.673Z,8.65
2022-08-02T08:10:14.129Z,9.23
2022-08-02T08:12:42.234Z,9.23
2022-08-02T08:15:12.362Z,8.85
2022-08-02T08:17:42.654Z,10.40
2022-08-02T08:20:15.911Z,10.07
2022-08-02T08:22:44.582Z,11.07
2022-08-02T08:25:12.983Z,11.18
2022-08-02T08:27:50.311Z,10.80
2022-08-02T08:30:21.712Z,9.52
2022-08-02T08:32:52.094Z,9.13
2022-08-02T08:35:21.253Z,9.07
2022-08-02T08:37:49.953Z,9.02
2022-08-02T08:40:19.876Z,7.65
2022-08-02T08:42:48.361Z,8.68
2022-08-02T08:45:17.915Z,8.10
2022-08-02T08:47:49.579Z,8.38
2022-08-02T08:50:25.180Z,7.90
2022-08-02T08:53:03.618Z,7.55
2022-08-02T08:55:33.236Z,7.53
2022-08-02T08:58:03.526Z,7.18
2022-08-02T09:00:35.821Z,7.22
2022-08-02T09:03:05.172Z,6.88
2022-08-02T09:05:38.561Z,7.10
2022-08-02T09:08:07.664Z,6.90
2022-08-02T09:10:38.522Z,7.82
2022-08-02T09:13:37.927Z,6.85
2022-08-02T09:16:12.170Z,6.90
2022-08-02T09:18:45.760Z,5.88
2022-08-02T09:21:17.572Z,5.60
2022-08-02T09:23:47.588Z,5.55
2022-08-02T09:26:17.507Z,5.50
2022-08-02T09:28:47.873Z,5.85
2022-08-02T09:31:18.313Z,6.00
2022-08-02T09:33:52.605Z,5.85
2022-08-02T09:36:22.960Z,6.40
2022-08-02T09:38:56.953Z,5.95
2022-08-02T09:41:29.553Z,5.55
2022-08-02T09:44:03.871Z,6.10
2022-08-02T09:46:37.704Z,6.15
2022-08-02T09:49:09.341Z,5.47
2022-08-02T09:51:41.020Z,5.10
2022-08-02T09:54:13.652Z,5.50
2022-08-02T09:56:47.190Z,6.10
2022-08-02T09:59:16.266Z,5.80
2022-08-02T10:01:51.467Z,5.75
2022-08-02T10:04:30.642Z,5.88
2022-08-02T10:07:04.049Z,5.32
2022-08-02T10:09:34.678Z,6.65
2022-08-02T10:12:08.813Z,5.40
2022-08-02T10:14:36.941Z,6.10
2022-08-02T10:17:06.239Z,5.97
2022-08-02T10:20:01.832Z,4.63
2022-08-02T10:22:26.262Z,4.82
2022-08-02T10:24:55.048Z,5.90
2022-08-02T10:27:25.762Z,5.32
2022-08-02T10:29:59.943Z,4.90
2022-08-02T10:32:32.298Z,5.65
2022-08-02T10:35:20.133Z,5.30
2022-08-02T10:38:01.078Z,5.10
2022-08-02T10:40:44.943Z,4.60
2022-08-02T10:43:14.008Z,4.75
2022-08-02T10:45:42.097Z,4.07
2022-08-02T10:48:11.678Z,5.00
2022-08-02T10:51:03.826Z,3.55
2022-08-02T10:53:34.252Z,3.78
2022-08-02T10:56:04.525Z,4.15
2022-08-02T10:58:34.453Z,3.55
2022-08-02T11:01:06.513Z,3.30
2022-08-02T11:03:40.720Z,3.90
2022-08-02T11:06:25.849Z,3.63
2022-08-02T11:09:32.528Z,3.70
2022-08-02T11:12:03.581Z,3.80
2022-08-02T11:14:32.433Z,3.20
2022-08-02T11:17:10.552Z,3.63
2022-08-02T11:20:12.021Z,3.17
2022-08-02T11:22:40.248Z,2.35
2022-08-02T11:26:02.694Z,2.33
2022-08-02T11:28:26.124Z,2.10
2022-08-02T11:31:01.456Z,2.10
2022-08-02T11:33:34.475Z,1.95
2022-08-02T11:36:04.925Z,2.28
2022-08-02T11:38:33.014Z,2.15
2022-08-02T11:41:06.002Z,2.30
2022-08-02T11:43:38.868Z,1.70
2022-08-02T11:46:13.672Z,1.88
2022-08-02T11:48:43.922Z,1.70
2022-08-02T11:51:13.455Z,1.60
2022-08-02T11:53:46.229Z,1.60
2022-08-02T11:56:22.353Z,2.08
2022-08-02T11:59:08.883Z,1.70
2022-08-02T12:01:45.398Z,1.67
2022-08-02T12:04:19.291Z,1.80
2022-08-02T12:06:59.108Z,1.90
2022-08-02T12:09:28.361Z,2.10
2022-08-02T12:11:59.517Z,1.80
2022-08-02T12:14:30.325Z,1.63
2022-08-02T12:17:17.613Z,1.80
2022-08-02T12:19:46.098Z,1.77
2022-08-02T12:22:17.652Z,1.27
2022-08-02T12:24:49.284Z,1.33
2022-08-02T12:27:36.488Z,1.98
2022-08-02T12:30:08.237Z,1.58
2022-08-02T12:32:37.778Z,1.42
2022-08-02T12:35:09.537Z,1.60
2022-08-02T12:37:38.416Z,1.65
2022-08-02T12:40:27.184Z,1.70
2022-08-02T12:42:59.799Z,1.42
2022-08-02T12:45:40.771Z,1.60
2022-08-02T12:48:10.280Z,1.65
2022-08-02T12:50:39.199Z,1.73
2022-08-02T12:53:09.187Z,2.00
2022-08-02T12:55:59.411Z,2.30
2022-08-02T12:58:30.690Z,2.03
2022-08-02T13:01:00.539Z,1.63
2022-08-02T13:04:10.815Z,2.30
2022-08-02T13:06:43.282Z,2.20
2022-08-02T13:09:14.503Z,1.92
2022-08-02T13:11:43.447Z,2.38
2022-08-02T13:14:14.120Z,2.20
2022-08-02T13:16:43.926Z,1.95
2022-08-02T13:19:13.047Z,2.67
2022-08-02T13:22:02.540Z,1.90
2022-08-02T13:24:40.594Z,2.33
2022-08-02T13:27:17.234Z,2.13
2022-08-02T13:29:46.596Z,2.35
2022-08-02T13:32:14.995Z,2.15
2022-08-02T13:34:43.328Z,2.15
2022-08-02T13:37:11.408Z,2.40
2022-08-02T13:39:39.586Z,2.00
2022-08-02T13:42:08.027Z,2.72
2022-08-02T13:44:36.055Z,2.88
2022-08-02T13:47:05.760Z,2.38
2022-08-02T13:49:51.248Z,2.80
2022-08-02T13:52:21.719Z,2.80
2022-08-02T13:54:49.707Z,3.00
2022-08-02T13:57:17.734Z,3.20
2022-08-02T13:59:56.279Z,3.00
2022-08-02T14:02:28.184Z,2.90
2022-08-02T14:04:56.998Z,2.45
2022-08-02T14:07:25.361Z,3.10
2022-08-02T14:09:53.488Z,2.80
2022-08-02T14:12:25.041Z,2.38
2022-08-02T14:14:53.008Z,2.53
2022-08-02T14:17:21.066Z,2.58
2022-08-02T14:19:50.795Z,2.13
2022-08-02T14:22:18.871Z,2.10
2022-08-02T14:24:46.915Z,2.08
2022-08-02T14:27:15.816Z,2.10
2022-08-02T14:29:43.803Z,1.88
2022-08-02T14:32:12.240Z,1.80
2022-08-02T14:34:40.389Z,1.90
2022-08-02T14:37:09.753Z,1.98
2022-08-02T14:39:43.705Z,1.73
2022-08-02T14:42:25.821Z,1.73
2022-08-02T14:44:53.876Z,2.03
2022-08-02T14:47:22.124Z,1.58
2022-08-02T14:49:50.747Z,2.15
2022-08-02T14:52:23.012Z,2.17
2022-08-02T14:54:52.356Z,1.80
2022-08-02T14:57:20.353Z,2.08
2022-08-02T14:59:48.373Z,1.80
2022-08-02T15:02:16.796Z,1.60
2022-08-02T15:04:44.954Z,1.55
2022-08-02T15:07:14.795Z,1.75
2022-08-02T15:09:44.202Z,1.40
2022-08-02T15:12:13.502Z,1.42
2022-08-02T15:14:42.402Z,1.40
2022-08-02T15:17:10.991Z,1.27
2022-08-02T15:19:56.511Z,1.48
2022-08-02T15:22:28.857Z,1.23
2022-08-02T15:25:00.236Z,1.40
2022-08-02T15:27:28.629Z,1.10
2022-08-02T15:30:00.328Z,1.20
2022-08-02T15:32:28.854Z,1.77
2022-08-02T15:34:58.623Z,1.50
2022-08-02T15:37:31.152Z,1.35
2022-08-02T15:40:00.892Z,1.27
2022-08-02T15:42:30.569Z,1.25
2022-08-02T15:44:59.457Z,2.08
2022-08-02T15:47:28.216Z,1.52
2022-08-02T15:49:58.450Z,1.55
2022-08-02T15:52:27.983Z,1.50
2022-08-02T15:55:07.370Z,1.60
2022-08-02T15:57:36.902Z,2.38
2022-08-02T16:00:06.010Z,1.90
2022-08-02T16:02:34.012Z,2.03
2022-08-02T16:05:02.050Z,1.75
2022-08-02T16:07:29.985Z,1.90
2022-08-02T16:09:58.236Z,1.52
2022-08-02T16:12:32.119Z,2.08
2022-08-02T16:15:02.485Z,1.80
2022-08-02T16:17:51.413Z,2.00
2022-08-02T16:20:18.422Z,1.63
2022-08-02T16:22:46.309Z,2.30
2022-08-02T16:25:17.222Z,1.75
2022-08-02T16:28:06.330Z,1.63
2022-08-02T16:30:35.429Z,1.77
2022-08-02T16:33:03.535Z,1.98
2022-08-02T16:35:31.502Z,1.55
2022-08-02T16:38:06.033Z,1.83
2022-08-02T16:41:01.500Z,1.60
2022-08-02T16:43:29.988Z,1.60
2022-08-02T16:45:59.316Z,1.35
2022-08-02T16:48:27.623Z,1.13
2022-08-02T16:50:55.971Z,1.13
2022-08-02T16:53:36.735Z,1.00
2022-08-02T16:56:05.908Z,1.27
2022-08-02T16:58:33.936Z,0.93
2022-08-02T17:01:03.326Z,0.85
2022-08-02T17:03:55.564Z,0.77
2022-08-02T17:06:19.562Z,1.20
2022-08-02T17:08:54.144Z,0.50
2022-08-02T17:11:23.760Z,0.70
2022-08-02T17:13:52.700Z,0.77
2022-08-02T17:16:25.842Z,0.85
2022-08-02T17:18:54.526Z,0.80
2022-08-02T17:21:22.887Z,0.73
2022-08-02T17:24:05.580Z,0.85
2022-08-02T17:26:37.582Z,1.20
2022-08-02T17:29:15.430Z,0.70
2022-08-02T17:32:05.874Z,0.90
2022-08-02T17:34:36.738Z,1.27
2022-08-02T17:37:06.439Z,1.35
2022-08-02T17:39:44.362Z,0.85
2022-08-02T17:42:23.575Z,1.15
2022-08-02T17:44:52.974Z,1.45
2022-08-02T17:47:42.751Z,1.10
2022-08-02T17:50:12.574Z,1.20
2022-08-02T17:52:50.305Z,1.25
2022-08-02T17:55:21.086Z,1.15
2022-08-02T17:57:57.260Z,1.17
2022-08-02T18:00:27.185Z,0.98
2022-08-02T18:02:56.614Z,1.33
2022-08-02T18:05:39.136Z,1.02
2022-08-02T18:08:08.911Z,1.33
2022-08-02T18:10:36.972Z,1.15
2022-08-02T18:13:05.391Z,0.90
2022-08-02T18:15:33.663Z,1.08
2022-08-02T18:18:03.091Z,1.10
2022-08-02T18:20:32.451Z,1.00
2022-08-02T18:23:00.463Z,1.05
2022-08-02T18:25:36.274Z,1.00
2022-08-02T18:28:06.414Z,1.00
2022-08-02T18:30:35.353Z,0.80
2022-08-02T18:33:57.690Z,1.17
2022-08-02T18:35:55.123Z,1.17
2022-08-02T18:38:26.796Z,0.95
2022-08-02T18:40:55.215Z,1.15
2022-08-02T18:43:25.054Z,1.10
2022-08-02T18:46:07.291Z,0.60
2022-08-02T18:48:46.508Z,0.85
2022-08-02T18:51:15.427Z,0.70
2022-08-02T18:53:43.923Z,0.70
2022-08-02T18:56:20.283Z,0.75
2022-08-02T18:58:52.518Z,0.50
2022-08-02T19:01:31.595Z,0.77
2022-08-02T19:04:02.702Z,0.60
2022-08-02T19:06:30.872Z,0.70
2022-08-02T19:09:05.944Z,0.43
2022-08-02T19:11:47.190Z,0.52
2022-08-02T19:14:24.227Z,0.63
2022-08-02T19:16:58.072Z,0.70
2022-08-02T19:19:29.104Z,0.52
2022-08-02T19:22:18.453Z,0.50
2022-08-02T19:24:47.133Z,0.95
2022-08-02T19:27:20.683Z,0.85
2022-08-02T19:29:54.469Z,0.90
2022-08-02T19:32:40.531Z,0.70
2022-08-02T19:35:19.711Z,0.80
2022-08-02T19:38:08.640Z,1.08
2022-08-02T19:40:38.832Z,1.10
2022-08-02T19:45:57.631Z,1.17
2022-08-02T19:48:27.278Z,0.70
2022-08-02T19:51:00.881Z,0.93
2022-08-02T19:53:48.143Z,1.05
2022-08-02T19:56:20.978Z,1.10
2022-08-02T19:58:51.372Z,0.82
2022-08-02T20:01:36.904Z,1.17
2022-08-02T20:04:07.342Z,0.90
2022-08-02T20:06:45.900Z,0.88
2022-08-02T20:09:21.341Z,1.13
2022-08-02T20:11:55.488Z,0.73
2022-08-02T20:14:26.970Z,1.13
2022-08-02T20:16:56.794Z,1.00
2022-08-02T20:19:29.067Z,1.20
2022-08-02T20:22:00.713Z,0.93
2022-08-02T20:24:30.595Z,2.08
2022-08-02T20:26:59.832Z,1.10
2022-08-02T20:29:43.563Z,2.15
2022-08-02T20:32:23.683Z,1.20
2022-08-02T20:34:54.049Z,1.05
2022-08-02T20:38:01.317Z,1.15
2022-08-02T20:43:03.702Z,1.60
2022-08-02T20:45:35.968Z,1.52
2022-08-02T20:48:04.268Z,1.38
2022-08-02T20:50:52.099Z,1.13
2022-08-02T20:53:25.965Z,1.23
2022-08-02T20:55:58.704Z,1.60
2022-08-02T20:58:28.143Z,1.80
2022-08-02T21:01:00.124Z,1.65
2022-08-02T21:03:39.337Z,1.35
2022-08-02T21:06:09.829Z,1.63
2022-08-02T21:08:39.652Z,1.50
2022-08-02T21:11:12.767Z,1.65
2022-08-02T21:13:47.097Z,1.40
2022-08-02T21:16:31.078Z,1.52
2022-08-02T21:19:00.118Z,1.58
2022-08-02T21:21:29.754Z,1.77
2022-08-02T21:24:01.495Z,1.80
2022-08-02T21:26:31.174Z,1.58
2022-08-02T21:29:03.630Z,1.30
2022-08-02T21:34:26.719Z,1.55
2022-08-02T21:36:56.995Z,1.55
2022-08-02T21:39:49.879Z,1.70
2022-08-02T21:42:22.593Z,1.83
2022-08-02T21:44:51.928Z,1.55
2022-08-02T21:47:25.264Z,1.88
2022-08-02T21:50:13.802Z,2.05
2022-08-02T21:52:52.305Z,1.63
2022-08-02T21:55:24.146Z,1.60
2022-08-02T21:58:10.160Z,1.70
2022-08-02T22:00:38.504Z,1.63
2022-08-02T22:03:22.608Z,1.67
2022-08-02T22:05:51.675Z,1.67
2022-08-02T22:08:19.909Z,1.63
2022-08-02T22:11:04.640Z,1.40
2022-08-02T22:13:47.650Z,1.27
2022-08-02T22:16:18.541Z,1.65
2022-08-02T22:18:51.419Z,1.52
2022-08-02T22:21:20.556Z,1.40
2022-08-02T22:23:51.406Z,1.63
2022-08-02T22:26:21.319Z,1.38
2022-08-02T22:28:50.972Z,1.63
2022-08-02T22:31:40.356Z,1.83
2022-08-02T22:34:11.695Z,1.90
2022-08-02T22:36:56.490Z,1.30
2022-08-02T22:39:24.580Z,1.70
2022-08-02T22:42:06.190Z,1.95
2022-08-02T22:44:35.580Z,1.58
2022-08-02T22:47:07.553Z,2.00
2022-08-02T22:49:54.315Z,1.38
2022-08-02T22:52:26.243Z,1.38
2022-08-02T22:54:54.862Z,1.50
2022-08-02T22:57:30.455Z,1.85
2022-08-02T22:59:02.910Z,2.17
2022-08-02T22:59:07.334Z,0.80
2022-08-02T22:59:07.950Z,1.02
2022-08-02T23:00:01.096Z,1.80
2022-08-02T23:02:30.109Z,1.60
2022-08-02T23:04:58.276Z,1.42
2022-08-02T23:07:27.812Z,1.67
2022-08-02T23:09:58.920Z,1.98
2022-08-02T23:12:30.770Z,1.90
2022-08-02T23:14:58.751Z,1.80
2022-08-02T23:17:44.794Z,1.77
2022-08-02T23:20:13.890Z,2.30
2022-08-02T23:22:42.251Z,1.63
2022-08-02T23:25:10.952Z,1.55
2022-08-02T23:27:40.562Z,1.83
2022-08-02T23:30:18.994Z,1.85
2022-08-02T23:32:47.505Z,2.08
2022-08-02T23:35:16.906Z,2.22
2022-08-02T23:37:57.837Z,1.80
2022-08-02T23:40:38.715Z,1.67
2022-08-02T23:43:13.733Z,2.15
2022-08-02T23:45:44.385Z,1.70
2022-08-02T23:48:15.118Z,1.90
2022-08-02T23:50:44.746Z,2.25
2022-08-02T23:53:13.119Z,1.77
2022-08-02T23:55:41.119Z,2.17
2022-08-02T23:58:13.388Z,2.15
